Main page


Airports :

Mexicali, Mexico

Mexicali International Airport

latitude: 32-37-50N, longitude: 115-14-30W, elevation: 22 m

Current weather observation

The report was made 26 minutes ago, at 05:45 UTC
Wind 4 kt from the North/Northwest
Temperature 16°C
Humidity 15%
Pressure 1017 hPa
Visibility: 16.1 km
Scattered clouds at a height of 25000 ft

METAR: MMML 200545Z 33004KT 10SM SCT250 16/M11 A3003 RMK SLP169 52006 967 8/008

Time: 00:11 (06:11 UTC)


The report was made 1 hour and 24 minutes ago, at 04:47 UTC
Forecast valid from 20 at 06 UTC to 21 at 06 UTC
Wind kt from the North
Visibility: 10 km
Scattered clouds at a height of 25000 ft
From 20 at 1800 UTC
Wind 8 kt from the South/Southeast
Scattered clouds at a height of 9000 ft
Broken clouds at a height of 25000 ft
from 21 at 03 UTC to 21 at 05 UTC
Wind 4 kt from the South/Southwest

TAF: MMML 200447Z 2006/2106 00000KT P6SM SCT250 FM201800 16008KTP6SM SCT090 BKN250 BECMG 2103/2105 20004KT

Weather observations and forecasts of more than 4000 airports (METAR and TAF reports).

The available stations are represented by yellow and red dots on the map.

Hover mouse over dot to see the name of the station.

Then click to see weather observations and forecasts.

To change the map : click on the green buttons with a black cross to zoom in, on the green button with a dash to zoom out, or on the green arrows for adjacent maps.